createdAt,value
2017-10-18T05:29:36.304Z,4.07
2017-10-18T06:32:44.402Z,3.17
2017-10-18T06:35:33.955Z,4.12
2017-10-18T06:38:10.351Z,3.35
2017-10-18T06:53:38.392Z,4.00
2017-10-18T06:56:06.488Z,3.40
2017-10-18T06:58:33.698Z,3.95
2017-10-18T07:01:00.377Z,3.40
2017-10-18T07:03:27.703Z,2.92
2017-10-18T07:06:02.689Z,4.07
2017-10-18T07:08:29.205Z,3.53
2017-10-18T07:10:55.757Z,4.35
2017-10-18T07:13:22.232Z,4.05
2017-10-18T07:15:49.550Z,3.60
2017-10-18T07:18:15.946Z,3.47
2017-10-18T07:23:17.116Z,3.25
2017-10-18T07:25:43.951Z,2.95
2017-10-18T07:28:10.432Z,3.58
2017-10-18T07:30:36.852Z,3.50
2017-10-18T07:33:04.859Z,3.23
2017-10-18T07:35:31.258Z,3.87
2017-10-18T07:37:57.684Z,3.53
2017-10-18T07:40:24.065Z,3.77
2017-10-18T07:42:50.498Z,4.10
2017-10-18T07:45:17.181Z,3.60
2017-10-18T07:47:43.613Z,3.77
2017-10-18T07:50:10.080Z,3.40
2017-10-18T07:52:37.255Z,3.37
2017-10-18T07:55:03.708Z,2.87
2017-10-18T07:57:30.249Z,3.33
2017-10-18T08:00:07.574Z,4.07
2017-10-18T08:02:34.007Z,3.67
2017-10-18T08:05:01.204Z,3.63
2017-10-18T08:07:27.564Z,4.00
2017-10-18T08:09:53.963Z,2.83
2017-10-18T08:12:20.373Z,3.27
2017-10-18T08:14:46.814Z,3.30
2017-10-18T08:19:50.927Z,2.70
2017-10-18T08:22:17.334Z,3.93
2017-10-18T08:24:44.289Z,3.80
2017-10-18T08:27:10.720Z,2.93
2017-10-18T08:29:38.966Z,2.90
2017-10-18T08:32:05.373Z,3.67
2017-10-18T08:34:32.278Z,3.30
2017-10-18T08:36:58.767Z,2.83
2017-10-18T08:39:25.162Z,2.63
2017-10-18T08:41:51.581Z,3.70
2017-10-18T08:44:20.529Z,2.63
2017-10-18T08:46:46.934Z,3.10
2017-10-18T08:49:13.388Z,2.83
2017-10-18T08:51:39.845Z,2.90
2017-10-18T08:54:09.220Z,2.10
2017-10-18T08:56:35.642Z,2.13
2017-10-18T08:59:02.454Z,2.60
2017-10-18T09:01:28.863Z,1.80
2017-10-18T09:03:55.259Z,1.60
2017-10-18T09:06:23.567Z,2.27
2017-10-18T09:08:50.069Z,2.10
2017-10-18T09:11:16.481Z,2.83
2017-10-18T09:13:42.910Z,2.60
2017-10-18T09:16:09.352Z,2.73
2017-10-18T09:18:36.619Z,2.90
2017-10-18T09:23:40.801Z,3.17
2017-10-18T09:26:08.023Z,4.03
2017-10-18T09:28:34.853Z,2.37
2017-10-18T09:31:01.266Z,3.13
2017-10-18T09:33:27.787Z,3.70
2017-10-18T09:35:57.308Z,3.03
2017-10-18T09:40:54.097Z,3.47
2017-10-18T09:43:20.522Z,3.97
2017-10-18T09:45:47.099Z,2.80
2017-10-18T09:48:13.493Z,2.90
2017-10-18T09:50:39.952Z,2.87
2017-10-18T09:53:06.353Z,2.87
2017-10-18T09:55:32.846Z,5.13
2017-10-18T09:57:59.403Z,2.80
2017-10-18T10:00:25.776Z,3.73
2017-10-18T10:02:52.214Z,3.33
2017-10-18T10:05:19.379Z,2.33
2017-10-18T10:07:46.789Z,2.90
2017-10-18T10:10:13.472Z,2.47
2017-10-18T10:12:39.847Z,1.83
2017-10-18T10:15:07.442Z,2.20
2017-10-18T10:17:33.928Z,2.23
2017-10-18T10:20:00.368Z,2.50
2017-10-18T10:22:26.868Z,2.17
2017-10-18T10:24:54.190Z,2.10
2017-10-18T10:27:21.373Z,2.17
2017-10-18T10:29:48.343Z,2.17
2017-10-18T10:32:15.436Z,1.97
2017-10-18T10:34:43.005Z,1.80
2017-10-18T10:37:09.407Z,1.67
2017-10-18T10:39:35.878Z,1.60
2017-10-18T10:42:02.391Z,1.50
2017-10-18T10:44:28.882Z,2.30
2017-10-18T10:46:55.236Z,1.40
2017-10-18T10:49:21.629Z,1.67
2017-10-18T10:51:48.080Z,1.60
2017-10-18T10:54:14.542Z,2.00
2017-10-18T10:56:40.990Z,2.10
2017-10-18T10:59:07.389Z,2.33
2017-10-18T11:01:33.814Z,1.90
2017-10-18T11:04:00.169Z,2.00
2017-10-18T11:06:27.025Z,1.50
2017-10-18T11:08:53.419Z,2.60
2017-10-18T11:11:19.850Z,2.00
2017-10-18T11:13:46.211Z,2.10
2017-10-18T11:18:53.644Z,1.40
2017-10-18T11:21:20.066Z,1.90
2017-10-18T11:23:46.478Z,2.03
2017-10-18T11:26:12.956Z,2.13
2017-10-18T11:28:39.360Z,1.63
2017-10-18T11:31:05.729Z,1.70
2017-10-18T11:33:32.164Z,1.37
2017-10-18T11:35:59.278Z,1.50
2017-10-18T11:38:25.665Z,1.93
2017-10-18T11:40:52.115Z,2.10
2017-10-18T11:43:18.567Z,1.60
2017-10-18T11:45:45.931Z,1.30
2017-10-18T11:48:12.351Z,1.43
2017-10-18T11:50:39.740Z,2.70
2017-10-18T11:53:08.995Z,1.23
2017-10-18T11:55:35.429Z,1.30
2017-10-18T11:58:02.231Z,1.20
2017-10-18T12:00:28.718Z,1.80
2017-10-18T12:02:56.121Z,1.40
2017-10-18T12:05:22.886Z,1.40
2017-10-18T12:07:49.245Z,1.90
2017-10-18T12:10:15.616Z,1.60
2017-10-18T12:12:41.958Z,1.30
2017-10-18T12:15:08.551Z,1.20
2017-10-18T12:17:35.042Z,1.80
2017-10-18T12:20:01.340Z,2.23
2017-10-18T12:22:27.681Z,1.50
2017-10-18T12:24:54.016Z,1.43
2017-10-18T12:27:20.408Z,1.30
2017-10-18T12:29:46.772Z,1.20
2017-10-18T12:32:13.144Z,1.20
2017-10-18T12:34:40.405Z,1.43
2017-10-18T12:37:06.828Z,1.10
2017-10-18T12:39:33.215Z,1.20
2017-10-18T12:41:59.594Z,1.30
2017-10-18T12:44:25.954Z,1.43
2017-10-18T12:46:52.472Z,1.47
2017-10-18T12:49:20.622Z,1.10
2017-10-18T12:51:46.996Z,1.30
2017-10-18T12:54:14.053Z,1.37
2017-10-18T12:56:41.694Z,1.37
2017-10-18T12:59:08.093Z,1.20
2017-10-18T13:01:34.494Z,1.20
2017-10-18T13:04:00.882Z,1.10
2017-10-18T13:06:27.607Z,1.00
2017-10-18T13:08:54.032Z,1.03
2017-10-18T13:13:51.772Z,1.30
2017-10-18T13:16:18.257Z,1.33
2017-10-18T13:18:44.625Z,1.80
2017-10-18T13:21:11.103Z,1.60
2017-10-18T13:39:03.239Z,1.20
2017-10-18T13:44:01.937Z,1.20
2017-10-18T13:46:28.369Z,1.70
2017-10-18T13:49:06.907Z,1.40
2017-10-18T13:51:33.352Z,1.50
2017-10-18T13:53:59.751Z,1.60
2017-10-18T13:56:26.108Z,1.43
2017-10-18T13:58:52.779Z,1.57
2017-10-18T14:01:20.141Z,1.70
2017-10-18T14:03:46.594Z,1.70
2017-10-18T14:06:13.683Z,1.20
2017-10-18T14:08:40.057Z,2.20
2017-10-18T14:11:06.836Z,1.87
2017-10-18T14:13:37.260Z,1.40
2017-10-18T14:16:03.746Z,1.93
2017-10-18T14:18:30.117Z,1.87
2017-10-18T14:20:56.563Z,1.60
2017-10-18T14:23:35.356Z,1.70
2017-10-18T14:26:01.989Z,1.73
2017-10-18T14:28:37.813Z,2.63
2017-10-18T14:31:04.261Z,1.73
2017-10-18T14:33:31.257Z,3.70
2017-10-18T14:36:01.736Z,2.70
2017-10-18T14:38:28.405Z,2.40
2017-10-18T14:40:58.112Z,1.70
2017-10-18T14:43:25.172Z,1.50
2017-10-18T14:45:51.618Z,1.73
2017-10-18T14:48:18.047Z,1.10
2017-10-18T14:50:48.148Z,2.10
2017-10-18T14:53:14.596Z,1.80
2017-10-18T14:55:41.012Z,2.30
2017-10-18T15:00:38.658Z,2.87
2017-10-18T15:03:05.817Z,1.93
2017-10-18T15:05:34.012Z,2.20
2017-10-18T15:08:02.259Z,2.80
2017-10-18T15:10:29.717Z,3.50
2017-10-18T15:12:56.191Z,2.90
2017-10-18T15:15:27.445Z,3.00
2017-10-18T15:17:53.909Z,2.60
2017-10-18T15:20:22.419Z,3.13
2017-10-18T15:22:48.875Z,3.30
2017-10-18T15:25:15.292Z,3.40
2017-10-18T15:30:19.905Z,5.70
2017-10-18T15:32:46.366Z,2.57
2017-10-18T15:35:25.251Z,2.50
2017-10-18T15:37:51.688Z,3.00
2017-10-18T15:40:18.130Z,2.93
2017-10-18T15:42:46.489Z,1.37
2017-10-18T15:45:13.938Z,2.90
2017-10-18T15:47:41.345Z,2.45
2017-10-18T15:50:07.907Z,2.08
2017-10-18T15:55:12.546Z,6.50
2017-10-18T15:57:39.857Z,15.50
2017-10-18T16:00:16.053Z,5.68
2017-10-18T16:02:44.522Z,5.97
2017-10-18T16:05:11.127Z,7.30
2017-10-18T16:07:38.496Z,4.20
2017-10-18T16:10:05.025Z,3.78
2017-10-18T16:12:40.369Z,3.20
2017-10-18T16:15:08.875Z,2.30
2017-10-18T16:17:38.171Z,3.03
2017-10-18T16:20:08.603Z,3.03
2017-10-18T16:30:27.094Z,2.60
2017-10-18T16:32:59.646Z,2.30
2017-10-18T16:35:26.431Z,3.45
2017-10-18T16:37:53.904Z,2.87
2017-10-18T16:56:27.047Z,3.10
2017-10-18T17:03:59.211Z,6.43
2017-10-18T17:06:28.175Z,10.48
2017-10-18T17:08:56.048Z,4.40
2017-10-18T17:11:22.453Z,4.10
2017-10-18T17:14:00.815Z,3.33
2017-10-18T17:16:27.354Z,3.05
2017-10-18T17:18:53.822Z,3.87
2017-10-18T17:21:28.830Z,3.37
2017-10-18T17:23:55.957Z,5.30
2017-10-18T17:26:28.031Z,4.85
2017-10-18T17:29:04.917Z,3.78
2017-10-18T17:31:32.366Z,3.65
2017-10-18T17:34:14.483Z,5.70
2017-10-18T17:36:42.291Z,5.78
2017-10-18T17:39:08.987Z,5.45
2017-10-18T17:41:36.622Z,4.80
2017-10-18T17:44:14.831Z,4.20
2017-10-18T17:46:42.215Z,5.40
2017-10-18T17:49:09.051Z,5.43
2017-10-18T17:51:35.668Z,5.72
2017-10-18T17:54:09.358Z,5.50
2017-10-18T17:59:06.596Z,5.05
2017-10-18T18:04:05.851Z,4.07
2017-10-18T18:09:04.470Z,6.35
2017-10-18T18:11:32.457Z,5.15
2017-10-18T18:14:00.486Z,3.33
2017-10-18T18:19:01.560Z,4.75
2017-10-18T18:21:31.870Z,5.15
2017-10-18T18:36:10.845Z,1.62
2017-10-18T18:38:37.298Z,3.37
2017-10-18T18:41:03.710Z,2.72
2017-10-18T18:43:41.176Z,2.90
2017-10-18T18:46:11.229Z,3.85
2017-10-18T18:56:18.885Z,3.92
2017-10-18T18:58:45.525Z,4.68
2017-10-18T19:03:58.678Z,5.62
2017-10-18T19:06:29.159Z,4.45
2017-10-18T19:08:55.886Z,4.22
2017-10-18T19:11:23.097Z,6.00
2017-10-18T19:13:58.911Z,3.80
2017-10-18T19:16:26.541Z,4.78
2017-10-18T19:18:54.968Z,4.00
2017-10-18T19:21:30.168Z,4.53
2017-10-18T19:23:56.613Z,5.70
2017-10-18T19:55:11.112Z,3.37
2017-10-18T19:57:37.454Z,5.25
2017-10-18T20:00:03.747Z,3.40
2017-10-18T20:02:36.671Z,5.10
2017-10-18T20:05:16.448Z,4.30
2017-10-18T20:07:44.665Z,3.80
2017-10-18T20:10:12.232Z,8.27
2017-10-18T20:12:40.685Z,8.23
2017-10-18T20:17:45.855Z,4.78
2017-10-18T20:22:52.401Z,6.25
2017-10-18T20:25:18.741Z,6.40
2017-10-18T20:27:45.084Z,6.12
2017-10-18T20:30:11.425Z,5.25
2017-10-18T20:32:37.764Z,4.80
2017-10-18T20:35:04.088Z,5.75
2017-10-18T20:37:30.437Z,3.90
2017-10-18T20:39:56.836Z,5.30
2017-10-18T20:42:23.945Z,5.10
2017-10-18T20:44:50.251Z,5.15
2017-10-18T20:47:16.583Z,6.43
2017-10-18T20:49:43.146Z,6.40
2017-10-18T20:52:09.449Z,6.60
2017-10-18T20:54:35.817Z,7.93
2017-10-18T20:57:02.090Z,7.07
2017-10-18T20:59:28.447Z,5.47
2017-10-18T21:01:54.773Z,5.97
2017-10-18T21:04:21.091Z,5.25
2017-10-18T21:06:47.449Z,6.20
2017-10-18T21:09:13.756Z,5.43
2017-10-18T21:11:40.094Z,4.68
2017-10-18T21:14:06.431Z,4.97
2017-10-18T21:16:32.778Z,3.50
2017-10-18T21:18:59.104Z,3.97
2017-10-18T21:21:25.461Z,5.03
2017-10-18T21:23:51.794Z,5.95
2017-10-18T21:26:18.213Z,4.50
2017-10-18T21:28:44.522Z,5.35
2017-10-18T21:31:15.167Z,4.28
2017-10-18T21:33:53.072Z,3.47
2017-10-18T21:36:19.586Z,4.55
2017-10-18T21:38:48.090Z,3.60
2017-10-18T21:41:14.757Z,3.62
2017-10-18T21:43:42.214Z,5.80
2017-10-18T21:46:09.205Z,5.97
2017-10-18T21:48:36.092Z,3.75
2017-10-18T21:51:02.573Z,5.20
2017-10-18T21:53:29.074Z,4.60
2017-10-18T21:56:04.158Z,7.75
2017-10-18T21:58:30.613Z,5.50
2017-10-18T22:01:05.871Z,4.90
2017-10-18T22:03:32.276Z,4.12
2017-10-18T22:05:59.756Z,4.37
2017-10-18T22:08:26.184Z,5.07
2017-10-18T22:11:00.578Z,4.82
2017-10-18T22:13:27.039Z,4.97
2017-10-18T22:15:55.328Z,5.47
2017-10-18T22:18:21.976Z,4.30
2017-10-18T22:20:49.441Z,4.10
2017-10-18T22:23:15.843Z,5.05
2017-10-18T22:25:46.041Z,5.40
2017-10-18T22:28:12.550Z,5.50
2017-10-18T22:30:39.924Z,3.75
2017-10-18T22:33:06.375Z,2.90
2017-10-18T22:35:32.814Z,4.00
2017-10-18T22:38:01.225Z,3.65
2017-10-18T22:40:31.606Z,4.62
2017-10-18T22:43:05.012Z,3.90
2017-10-18T22:45:31.508Z,4.00
2017-10-18T22:47:57.976Z,5.43
2017-10-18T22:50:24.448Z,5.93
2017-10-18T22:52:51.085Z,7.62
2017-10-18T22:55:25.181Z,5.55
2017-10-18T22:57:51.646Z,3.83
2017-10-18T23:00:18.571Z,4.03
2017-10-18T23:02:44.976Z,4.30
2017-10-18T23:05:19.244Z,3.72
2017-10-18T23:07:54.381Z,3.92
2017-10-18T23:10:29.088Z,3.67
2017-10-18T23:12:55.514Z,4.18
2017-10-18T23:15:22.876Z,4.15
2017-10-18T23:17:59.194Z,3.47
2017-10-18T23:20:25.817Z,4.70
2017-10-18T23:23:01.213Z,3.80
2017-10-18T23:25:29.982Z,4.35
2017-10-18T23:27:56.454Z,4.18
2017-10-18T23:30:23.795Z,4.45
2017-10-18T23:32:59.507Z,5.30
2017-10-18T23:35:26.424Z,6.18
2017-10-18T23:37:53.064Z,4.75
2017-10-18T23:40:19.605Z,2.37
2017-10-18T23:42:49.985Z,2.70
2017-10-18T23:45:16.414Z,3.95
2017-10-18T23:47:42.866Z,3.03
2017-10-18T23:50:11.306Z,2.95
2017-10-18T23:52:37.652Z,4.57
2017-10-18T23:55:13.950Z,3.72
2017-10-18T23:57:40.414Z,3.22
